Impacts TAF Board INFO
FOR SITUATIONAL AWARENESS. NOT TO BE USED FOR FLIGHT PLANNING PURPOSES.
IDs:

KPHL - Philadelphia Intl, PA, US

Issued at 0856 UTC 20 Nov 2017
Updated at 0932 UTC 20 Nov 2017
Potential Impact None Slight Moderate High
Time<<21/10Z 21/11Z 21/12Z 21/13Z 21/14Z 21/15Z 21/16Z 21/17Z 21/18Z 21/19Z 21/20Z 21/21Z 21/22Z
Type PRVL PRVL
VIS >6 >6
CIG -- --
Cover SKC SKC
FltCat VFR VFR
WX -- --
WDir 210 210
WSpd 6 6
WGst -- --

Raw TAF
KPHL 200856Z 2009/2112 27011G18KT P6SM SCT060
  FM201400 27013G23KT P6SM SKC
  FM202200 24007KT P6SM SKC
  FM210400 21006KT P6SM SKC


METAR Board
Radar Display
Forecast Discussion

FOR SITUATIONAL AWARENESS. NOT TO BE USED FOR FLIGHT PLANNING PURPOSES.